Nearby METAR Reports

 

KBUF - Buffalo/Cheektow, New York, USA
Distance from station: 0 0mi, 0km
Updated: 12/02/2022 12:54pm
Mostly cloudy
Mostly cloudy
 Wind from S
Wind: S 15 mph , 24 km/h, Gust: 24 mph , 39 km/h
Temperature: 45°F , 7°C
Wind Chill: 38°F , 3°C
Dew Point: 12°F , -11°C
Humidity: 27%
Barometer: 30.19 inHg , 1022.4 hPa
Clouds: Mostly cloudy
Visibility: 10 miles , 16 km
Cloud details: Mostly cloudy 8000 ft
Mostly cloudy 12000 ft
2022/12/02 17:54 KBUF 021754Z 18013G21KT 10SM BKN080 BKN120 07/M11 A3019 RMK AO2 SLP230 T00671106 10067 21006 56040
KIAG - Niagara Falls, New York, USA
Distance from station: NW 16mi, 26km
Updated: 12/02/2022 12:53pm
Overcast
Overcast
 Wind from S
Wind: S 14 mph , 22 km/h
Temperature: 45°F , 7°C
Wind Chill: 39°F , 4°C
Dew Point: 19°F , -7°C
Humidity: 37%
Barometer: 30.17 inHg , 1021.7 hPa
Clouds: Overcast
Visibility: 10 miles , 16 km
Cloud details: Mostly cloudy 8500 ft
Overcast 12000 ft
2022/12/02 17:53 KIAG 021753Z 18012KT 10SM BKN085 OVC120 07/M07 A3017 RMK AO2 SLP231 T00671067 10067 21006 58037
 
CWPC - Port Colborne(Au, Ontario, Canada
Distance from station: W 27mi, 43km
Updated: 12/02/2022 1:00pm

 Wind from SSW
Wind: SSW 25 mph , 41 km/h
Temperature: 43°F , 6°C
Wind Chill: 33°F , 1°C
Dew Point: 23°F , -5°C
Humidity: 46%
2022/12/02 18:00 CWPC 021800Z AUTO 20022KT 06/M05 RMK AO1 PK WND 20027/1749 SLP236 T00571052 58034
CYSN - St. Catharines A, Ontario, Canada
Distance from station: NW 29mi, 46km
Updated: 12/02/2022 1:00pm
Mostly cloudy
Mostly cloudy
 Wind from S
Wind: S 10 mph , 17 km/h
Temperature: 43°F , 6°C
Wind Chill: 37°F , 3°C
Dew Point: 25°F , -4°C
Humidity: 49%
Barometer: 30.17 inHg , 1021.7 hPa
Clouds: Mostly cloudy
Visibility: 15 miles , 24 km
Cloud details: Partly cloudy 9000 ft
Mostly cloudy 12000 ft
2022/12/02 18:00 CYSN 021800Z 17009KT 15SM SCT090 BKN120 06/M04 A3017 RMK AC4AC2 SLP222
 
CWWZ - Port Weller (mar, Ontario, Canada
Distance from station: NW 33mi, 53km
Updated: 12/02/2022 1:00pm

 Wind from SSE
Wind: SSE 10 mph , 17 km/h
Temperature: 43°F , 6°C
Wind Chill: 37°F , 3°C
Dew Point: 27°F , -3°C
Humidity: 53%
2022/12/02 18:00 CWWZ 021800Z AUTO 16009KT 06/M03 RMK AO1 SLP222 T00591026 58037
CXVN - Vineland (au8), Ontario, Canada
Distance from station: WNW 38mi, 61km
Updated: 12/02/2022 1:00pm

 Wind from S
Wind: S 9 mph , 15 km/h
Temperature: 43°F , 6°C
Wind Chill: 38°F , 3°C
Dew Point: 23°F , -5°C
Humidity: 46%
2022/12/02 18:00 CXVN 021800Z AUTO 19008KT 06/M05 RMK AO1 SLP223 T00551050 58036
 
KDKK - Dunkirk, New York, USA
Distance from station: SW 41mi, 66km
Updated: 12/02/2022 12:53pm
Overcast
Overcast
 Wind from S
Wind: S 21 mph , 33 km/h, Gust: 37 mph , 59 km/h
Temperature: 43°F , 6°C
Wind Chill: 34°F , 1°C
Dew Point: 16°F , -9°C
Humidity: 34%
Barometer: 30.17 inHg , 1021.7 hPa
Clouds: Overcast
Visibility: 10 miles , 16 km
Cloud details: Mostly cloudy 8000 ft
Overcast 12000 ft
2022/12/02 17:53 KDKK 021753Z AUTO 18018G32KT 10SM BKN080 OVC120 06/M09 A3017 RMK AO2 PK WND 18037/1708 SLP224 T00611094 10061 20011 58037
KOLE - Olean, New York, USA
Distance from station: SSE 52mi, 83km
Updated: 12/02/2022 1:35pm
Overcast
Overcast
 Wind from SSW
Wind: SSW 10 mph , 17 km/h, Gust: 16 mph , 26 km/h
Temperature: 32°F , 0°C
Wind Chill: 24°F , -4°C
Dew Point: 18°F , -8°C
Humidity: 55%
Barometer: 30.20 inHg , 1022.7 hPa
Clouds: Overcast
Visibility: 10 miles , 16 km
Cloud details: Partly cloudy 6000 ft
Mostly cloudy 8000 ft
Overcast 10000 ft
2022/12/02 18:35 KOLE 021835Z AUTO 20009G14KT 10SM SCT060 BKN080 OVC100 00/M08 A3020 RMK AO2
 
KROC - Rochester, New York, USA
Distance from station: ENE 55mi, 88km
Updated: 12/02/2022 12:54pm
Mostly cloudy
Mostly cloudy
 Wind from SSW
Wind: SSW 10 mph , 17 km/h
Temperature: 39°F , 4°C
Wind Chill: 32°F , 0°C
Dew Point: 18°F , -8°C
Humidity: 42%
Barometer: 30.24 inHg , 1024 hPa
Clouds: Mostly cloudy
Visibility: 10 miles , 16 km
Cloud details: Mostly cloudy 8500 ft
Mostly cloudy 12000 ft
2022/12/02 17:54 KROC 021754Z 20009KT 10SM BKN085 BKN120 04/M08 A3024 RMK AO2 SLP250 T00441078 10050 21017 58036
KDSV - Dansville, New York, USA
Distance from station: ESE 57mi, 92km
Updated: 12/02/2022 12:54pm
Overcast
Overcast
 Wind from SE
Wind: SE 9 mph , 15 km/h
Temperature: 41°F , 5°C
Wind Chill: 35°F , 2°C
Dew Point: 21°F , -6°C
Humidity: 45%
Barometer: 30.25 inHg , 1024.4 hPa
Clouds: Overcast
Visibility: 10 miles , 16 km
Cloud details: Overcast 12000 ft
2022/12/02 17:54 KDSV 021754Z AUTO 14008KT 10SM OVC120 05/M06 A3025 RMK AO2 SLP260 T00501061 10050 21033 56037
 
CWWB - Burlington Piers, Ontario, Canada
Distance from station: WNW 59mi, 94km
Updated: 12/02/2022 1:00pm

 Wind from S
Wind: S 14 mph , 22 km/h, Gust: 20 mph , 31 km/h
Temperature: 43°F , 6°C
Wind Chill: 36°F , 2°C
Dew Point: 25°F , -4°C
Humidity: 49%
2022/12/02 18:00 CWWB 021800Z AUTO 18012G17KT 06/M04 RMK AO1 PK WND 17017/1752 SLP217 T00611043 58038
CYTZ - Toronto Il Vor, Ontario, Canada
Distance from station: NW 59mi, 95km
Updated: 12/02/2022 1:00pm
Overcast
Overcast
 Wind from S
Wind: S 9 mph , 15 km/h
Temperature: 41°F , 5°C
Wind Chill: 35°F , 2°C
Dew Point: 30°F , -1°C
Humidity: 66%
Barometer: 30.18 inHg , 1022 hPa
Clouds: Overcast
Visibility: 9 miles , 14 km
Cloud details: Overcast 8600 ft
2022/12/02 18:00 CYTZ 021800Z AUTO 17008KT 9SM OVC086 05/M01 A3018 RMK SLP224
 
CXTO - Toronto City, Ontario, Canada
Distance from station: NW 61mi, 98km
Updated: 12/02/2022 1:00pm

 
Temperature: 39°F , 4°C
Dew Point: 28°F , -2°C
Humidity: 65%
2022/12/02 18:00 CXTO 021800Z AUTO 04/M02 RMK AO1 SLP220 T00441024 57034
KJHW - Jamestown, New York, USA
Distance from station: SSW 62mi, 99km
Updated: 12/02/2022 12:56pm
Overcast
Overcast
 Wind from S
Wind: S 10 mph , 17 km/h
Temperature: 36°F , 2°C
Wind Chill: 29°F , -2°C
Dew Point: 18°F , -8°C
Humidity: 48%
Barometer: 30.20 inHg , 1022.7 hPa
Clouds: Overcast
Visibility: 10 miles , 16 km
Cloud details: Mostly cloudy 6500 ft
Overcast 11000 ft
2022/12/02 17:56 KJHW 021756Z AUTO 18009KT 10SM BKN065 OVC110 02/M08 A3020 RMK AO2 SLP253 T00171078 10017 21044 56034 FZRANO
 
CYHM - Hamilton Airport, Ontario, Canada
Distance from station: WNW 63mi, 101km
Updated: 12/02/2022 1:00pm
Mostly cloudy
Mostly cloudy
 Wind from S
Wind: S 15 mph , 24 km/h
Temperature: 41°F , 5°C
Wind Chill: 33°F , 1°C
Dew Point: 25°F , -4°C
Humidity: 53%
Barometer: 30.14 inHg , 1020.7 hPa
Clouds: Mostly cloudy
Visibility: 15 miles , 24 km
Cloud details: Mostly cloudy 7900 ft
Mostly cloudy 12000 ft
2022/12/02 18:00 CYHM 021800Z 19013KT 15SM BKN079 BKN120 05/M04 A3014 RMK AC5AC5 SLP217
CXHM - Hamilton Rbg Cs, Ontario, Canada
Distance from station: WNW 64mi, 102km
Updated: 12/02/2022 1:00pm

 Wind from SSW
Wind: SSW 6 mph , 9 km/h
Temperature: 43°F , 6°C
Wind Chill: 39°F , 4°C
Dew Point: 23°F , -5°C
Humidity: 46%
2022/12/02 18:00 CXHM 021800Z AUTO 20005KT 06/M05 RMK AO1 8036 SLP219 T00581049 50002
 
CYYZ - Toronto/Pearson, Ontario, Canada
Distance from station: NW 67mi, 108km
Updated: 12/02/2022 1:00pm
Mostly cloudy
Mostly cloudy
 Wind from SSE
Wind: SSE 7 mph , 11 km/h
Temperature: 41°F , 5°C
Wind Chill: 36°F , 2°C
Dew Point: 28°F , -2°C
Humidity: 61%
Barometer: 30.15 inHg , 1021 hPa
Clouds: Mostly cloudy
Visibility: 15 miles , 24 km
Cloud details: Mostly cloudy 7500 ft
Mostly cloudy 11000 ft
2022/12/02 18:00 CYYZ 021800Z 16006KT 15SM BKN075 BKN110 05/M02 A3015 RMK AC5AC2 SLP219
CYOO - Oshawa, Ontario, Canada
Distance from station: N 68mi, 110km
Updated: 12/02/2022 1:00pm
Overcast
Overcast
 Wind from SSE
Wind: SSE 9 mph , 15 km/h
Temperature: 39°F , 4°C
Wind Chill: 33°F , 1°C
Dew Point: 27°F , -3°C
Humidity: 61%
Barometer: 30.18 inHg , 1022 hPa
Clouds: Overcast
Visibility: 9 miles , 14 km
Cloud details: Overcast 9100 ft
2022/12/02 18:00 CYOO 021800Z AUTO 15008KT 9SM OVC091 04/M03 A3018 RMK SLP229
 
KELZ - Wellsville, New York, USA
Distance from station: SE 69mi, 111km
Updated: 12/02/2022 12:56pm
Overcast
Overcast
 Wind from S
Wind: S 12 mph , 19 km/h, Gust: 21 mph , 33 km/h
Temperature: 36°F , 2°C
Wind Chill: 28°F , -2°C
Dew Point: 16°F , -9°C
Humidity: 44%
Barometer: 30.24 inHg , 1024 hPa
Clouds: Overcast
Visibility: 10 miles , 16 km
Cloud details: Overcast 11000 ft
2022/12/02 17:56 KELZ 021756Z AUTO 18010G18KT 10SM OVC110 02/M09 A3024 RMK AO2 SLP264 T00221089 10022 21044 56029
CWNC - Cobourg (mars), Ontario, Canada
Distance from station: NNE 76mi, 122km
Updated: 12/02/2022 1:00pm

 Wind from SSE
Wind: SSE 14 mph , 22 km/h
Temperature: 37°F , 3°C
Wind Chill: 28°F , -2°C
Dew Point: 27°F , -3°C
Humidity: 65%
2022/12/02 18:00 CWNC 021800Z AUTO 16012KT 03/M03 RMK AO1 SLP238 T00341026 56034